Time;durP1;ratioP1;P1;durP2;ratioP2;P2;SDS_P1;SDS_P2;PMS_P1;PMS_P2;Temp;Humidity;BMP_temperature;BMP_pressure;BME280_temperature;BME280_humidity;BME280_pressure;Samples;Min_cycle;Max_cycle;Signal;HPM_P1;HPM_P2
2021/07/16 00:00:09;;;;;;;4.22;3.08;;;;;;;22.68;59.86;99757.53;4987248;28;20051;-85
2021/07/16 00:02:36;;;;;;;8.15;3.70;;;;;;;22.35;61.51;99757.50;4988305;28;20382;-87
2021/07/16 00:05:04;;;;;;;5.30;3.03;;;;;;;22.39;61.41;99760.69;4994786;28;20066;-87
2021/07/16 00:07:33;;;;;;;5.82;2.90;;;;;;;22.33;61.21;99754.19;4991592;28;20123;-87
2021/07/16 00:10:00;;;;;;;4.45;3.28;;;;;;;22.39;60.84;99756.19;4990760;28;20472;-86
2021/07/16 00:12:27;;;;;;;5.05;3.38;;;;;;;22.49;60.35;99756.03;4991803;28;20045;-89
2021/07/16 00:14:54;;;;;;;6.95;3.30;;;;;;;22.49;60.76;99753.38;4974189;28;20141;-88
2021/07/16 00:17:21;;;;;;;11.07;2.97;;;;;;;22.32;61.76;99757.84;4992839;28;20051;-87
2021/07/16 00:19:50;;;;;;;10.38;3.00;;;;;;;22.35;61.53;99751.38;4975541;28;20042;-86
2021/07/16 00:22:19;;;;;;;6.47;3.42;;;;;;;22.31;61.37;99747.38;4971762;28;20046;-86
2021/07/16 00:24:46;;;;;;;6.43;4.30;;;;;;;22.27;61.33;99751.38;4994819;28;20042;-86
2021/07/16 00:27:13;;;;;;;9.60;4.13;;;;;;;22.25;61.29;99740.91;4966248;28;20073;-85
2021/07/16 00:29:40;;;;;;;6.13;3.60;;;;;;;22.19;61.41;99745.03;4966822;28;20398;-86
2021/07/16 00:32:07;;;;;;;7.10;3.58;;;;;;;22.18;61.50;99739.91;4994564;28;20552;-86
2021/07/16 00:34:34;;;;;;;4.90;4.00;;;;;;;22.31;60.57;99742.06;4994548;28;20509;-87
2021/07/16 00:37:01;;;;;;;8.05;4.53;;;;;;;22.43;59.94;99741.59;4994871;28;20041;-85
2021/07/16 00:39:28;;;;;;;6.40;3.97;;;;;;;22.40;60.01;99739.25;4994470;28;20532;-86
2021/07/16 00:41:55;;;;;;;6.57;4.05;;;;;;;22.37;59.85;99728.97;4985822;28;20070;-87
2021/07/16 00:44:24;;;;;;;10.98;4.13;;;;;;;22.46;59.08;99735.94;4994114;28;20049;-86
2021/07/16 00:46:51;;;;;;;11.52;4.28;;;;;;;22.55;58.63;99727.97;4994449;28;20062;-88
2021/07/16 00:49:18;;;;;;;4.38;3.38;;;;;;;22.46;58.85;99730.63;4995270;28;20108;-89
2021/07/16 00:51:46;;;;;;;5.78;3.58;;;;;;;22.45;58.48;99725.50;5004225;28;20046;-88
2021/07/16 00:54:13;;;;;;;7.78;3.95;;;;;;;22.43;58.45;99719.53;5002707;28;20459;-90
2021/07/16 00:56:40;;;;;;;5.45;3.60;;;;;;;22.42;58.79;99728.47;4987377;28;20062;-88
2021/07/16 00:59:07;;;;;;;9.65;3.47;;;;;;;22.54;58.33;99719.19;5004610;28;20049;-86
2021/07/16 01:01:34;;;;;;;9.05;3.25;;;;;;;22.73;58.09;99716.16;5000647;28;20169;-88
2021/07/16 01:04:01;;;;;;;4.38;3.60;;;;;;;22.68;58.28;99730.94;5001921;28;20046;-86
2021/07/16 01:06:28;;;;;;;5.10;2.78;;;;;;;22.51;58.73;99724.81;5001582;28;20145;-87
2021/07/16 01:08:55;;;;;;;6.25;3.60;;;;;;;22.45;58.79;99730.81;5007992;28;20052;-86
2021/07/16 01:11:22;;;;;;;13.02;4.10;;;;;;;22.46;58.48;99735.09;4997494;28;20078;-87
2021/07/16 01:13:49;;;;;;;6.85;3.78;;;;;;;22.54;58.41;99732.47;5000847;28;20045;-89
2021/07/16 01:16:16;;;;;;;8.70;4.35;;;;;;;22.39;58.43;99732.28;5004518;28;20057;-89
2021/07/16 01:18:44;;;;;;;7.15;4.78;;;;;;;22.39;58.89;99726.97;5006856;28;20043;-88
2021/07/16 01:21:13;;;;;;;11.15;4.47;;;;;;;22.52;58.89;99728.31;5003518;28;20413;-87
2021/07/16 01:23:41;;;;;;;13.80;5.25;;;;;;;22.59;58.54;99724.84;4994320;28;20042;-88
2021/07/16 01:26:09;;;;;;;10.60;4.20;;;;;;;22.61;58.73;99729.97;4994486;28;20042;-85
2021/07/16 01:28:39;;;;;;;10.63;4.47;;;;;;;22.58;59.10;99723.16;4994064;28;20651;-88
2021/07/16 01:31:07;;;;;;;6.53;3.65;;;;;;;22.63;58.79;99727.97;4994680;28;20141;-87
2021/07/16 01:33:35;;;;;;;8.32;5.18;;;;;;;22.60;58.93;99725.66;4993633;28;20053;-88
2021/07/16 01:36:02;;;;;;;10.35;3.92;;;;;;;22.61;58.67;99722.00;4994089;28;20382;-85
2021/07/16 01:38:29;;;;;;;11.68;4.35;;;;;;;22.53;58.95;99712.22;4993798;28;20458;-85
2021/07/16 01:40:55;;;;;;;5.32;3.75;;;;;;;22.60;58.65;99710.56;4993377;28;20440;-85
2021/07/16 01:43:23;;;;;;;7.78;4.28;;;;;;;22.51;58.80;99713.38;4993597;28;20044;-85
2021/07/16 01:45:50;;;;;;;12.38;4.70;;;;;;;22.60;58.81;99707.06;4993498;28;20464;-85
2021/07/16 01:48:17;;;;;;;8.80;3.70;;;;;;;22.57;58.81;99718.00;4976254;28;20043;-85
2021/07/16 01:50:47;;;;;;;8.30;3.50;;;;;;;22.64;58.59;99719.84;4993056;28;20109;-85
2021/07/16 01:53:17;;;;;;;6.57;4.47;;;;;;;22.59;58.80;99721.34;4993497;28;20121;-84
2021/07/16 01:55:46;;;;;;;7.97;3.95;;;;;;;22.63;58.72;99712.84;4993579;28;20469;-85
2021/07/16 01:58:15;;;;;;;6.35;4.05;;;;;;;22.49;58.97;99717.03;4993559;28;20117;-85
2021/07/16 02:00:49;;;;;;;6.28;4.32;;;;;;;22.52;59.29;99715.84;4993500;28;20097;-85
2021/07/16 02:03:17;;;;;;;4.55;3.35;;;;;;;22.51;59.21;99718.69;4993406;28;20054;-84
2021/07/16 02:05:46;;;;;;;10.70;4.35;;;;;;;22.52;59.18;99718.50;4993780;28;20117;-85
2021/07/16 02:08:19;;;;;;;8.90;4.47;;;;;;;22.37;59.33;99710.41;4993180;28;20060;-86
2021/07/16 02:10:53;;;;;;;9.13;4.88;;;;;;;22.37;59.43;99707.75;4993310;28;20130;-86
2021/07/16 02:13:21;;;;;;;5.45;4.65;;;;;;;22.43;59.26;99709.72;4992491;28;20050;-87
2021/07/16 02:15:50;;;;;;;8.10;5.47;;;;;;;22.41;58.96;99705.56;4993349;28;20082;-87
2021/07/16 02:18:18;;;;;;;6.10;4.20;;;;;;;22.36;59.25;99706.06;4993141;28;20049;-85
2021/07/16 02:20:45;;;;;;;8.38;4.50;;;;;;;22.33;58.99;99706.41;4993363;28;20248;-87
2021/07/16 02:23:30;;;;;;;9.98;4.50;;;;;;;22.32;59.06;99709.19;4992524;28;20047;-86
2021/07/16 02:25:58;;;;;;;12.80;4.68;;;;;;;22.18;59.58;99708.06;4993215;28;20497;-87
2021/07/16 02:28:30;;;;;;;13.65;5.10;;;;;;;22.22;59.32;99702.25;4993025;28;20482;-86
2021/07/16 02:31:02;;;;;;;4.68;4.00;;;;;;;22.21;59.62;99707.69;4991432;28;20125;-85
2021/07/16 02:33:29;;;;;;;11.10;4.38;;;;;;;22.18;59.45;99702.75;4986726;28;20042;-86
2021/07/16 02:35:57;;;;;;;7.30;4.20;;;;;;;22.21;59.19;99703.25;4986748;28;20964;-86
2021/07/16 02:38:24;;;;;;;8.88;4.43;;;;;;;22.27;59.19;99696.44;4988857;28;20046;-86
2021/07/16 02:40:53;;;;;;;6.38;3.97;;;;;;;22.28;59.13;99700.75;4977843;28;20038;-86
2021/07/16 02:43:21;;;;;;;7.40;4.07;;;;;;;22.23;59.11;99695.13;4986375;28;20081;-86
2021/07/16 02:45:49;;;;;;;6.13;4.45;;;;;;;22.20;59.37;99698.09;4974441;28;20505;-87
2021/07/16 02:48:16;;;;;;;8.50;3.95;;;;;;;22.14;59.32;99702.22;4978547;28;20061;-85
2021/07/16 02:50:46;;;;;;;4.65;3.45;;;;;;;22.17;58.89;99690.47;4982714;28;20150;-88
2021/07/16 02:53:16;;;;;;;7.40;3.15;;;;;;;21.98;59.73;99697.69;4983934;28;20045;-86
2021/07/16 02:55:43;;;;;;;5.63;3.25;;;;;;;22.07;59.22;99695.06;4976537;28;20038;-89
2021/07/16 02:58:10;;;;;;;5.82;3.55;;;;;;;21.97;59.25;99698.69;4973981;28;20508;-86
2021/07/16 03:00:38;;;;;;;5.03;3.50;;;;;;;22.09;59.06;99698.38;4983669;28;20046;-86
2021/07/16 03:03:05;;;;;;;6.90;3.10;;;;;;;22.10;59.03;99698.22;4986291;28;20047;-86
2021/07/16 03:05:37;;;;;;;5.88;2.83;;;;;;;22.09;58.56;99698.38;4962752;28;20046;-86
2021/07/16 03:08:07;;;;;;;10.30;3.50;;;;;;;22.04;58.82;99701.50;4991172;28;20057;-86
2021/07/16 03:10:36;;;;;;;5.72;2.55;;;;;;;22.11;58.76;99704.41;4979106;28;20059;-86
2021/07/16 03:13:10;;;;;;;6.15;2.55;;;;;;;22.18;58.65;99703.56;4972899;28;20058;-86
2021/07/16 03:15:38;;;;;;;4.55;3.00;;;;;;;22.10;58.43;99708.00;4975166;28;20473;-86
2021/07/16 03:18:07;;;;;;;4.43;2.08;;;;;;;22.19;58.35;99704.41;4977071;28;20042;-88
2021/07/16 03:20:37;;;;;;;7.20;3.10;;;;;;;22.16;58.35;99713.53;4978010;28;20130;-87
2021/07/16 03:23:08;;;;;;;4.72;2.60;;;;;;;22.16;58.23;99707.41;4959622;28;20564;-86
2021/07/16 03:25:36;;;;;;;6.97;2.90;;;;;;;22.15;57.83;99709.19;4977472;28;20109;-87
2021/07/16 03:28:08;;;;;;;11.73;3.40;;;;;;;22.25;57.91;99705.56;4985953;28;20396;-87
2021/07/16 03:30:35;;;;;;;7.47;2.30;;;;;;;22.30;57.83;99706.72;4996052;28;20133;-86
2021/07/16 03:33:03;;;;;;;4.00;2.63;;;;;;;22.42;57.16;99715.19;4994635;28;20122;-84
2021/07/16 03:35:33;;;;;;;7.05;3.38;;;;;;;22.18;58.25;99719.50;4978396;28;20042;-84
2021/07/16 03:38:00;;;;;;;4.50;2.63;;;;;;;22.14;58.46;99718.16;4990195;28;20061;-85
2021/07/16 03:40:29;;;;;;;6.82;3.35;;;;;;;22.15;59.14;99713.66;4976776;28;20078;-87
2021/07/16 03:42:57;;;;;;;7.93;3.38;;;;;;;22.28;59.03;99714.03;4993025;28;20057;-88
2021/07/16 03:45:25;;;;;;;4.35;3.28;;;;;;;22.09;59.74;99720.44;4976787;28;20046;-85
2021/07/16 03:47:52;;;;;;;3.83;3.25;;;;;;;21.90;60.46;99721.56;4976827;28;20063;-85
2021/07/16 03:50:20;;;;;;;4.68;3.47;;;;;;;21.93;60.46;99721.22;4976508;28;20046;-87
2021/07/16 03:52:49;;;;;;;6.78;3.83;;;;;;;22.16;59.68;99718.84;4977312;28;20049;-87
2021/07/16 03:55:17;;;;;;;5.07;3.00;;;;;;;21.96;60.24;99714.78;4996126;28;20129;-86
2021/07/16 03:57:45;;;;;;;6.47;3.60;;;;;;;22.06;59.87;99715.47;4995943;28;20074;-87
2021/07/16 04:00:16;;;;;;;4.45;2.90;;;;;;;22.12;59.28;99720.16;4962513;28;20501;-88
2021/07/16 04:02:43;;;;;;;9.98;3.05;;;;;;;22.31;59.06;99716.34;4977793;28;20042;-85
2021/07/16 04:05:11;;;;;;;9.77;3.67;;;;;;;22.33;59.43;99719.69;4978168;28;20038;-86
2021/07/16 04:07:45;;;;;;;8.27;3.78;;;;;;;22.25;59.69;99719.66;4984977;28;20122;-84
2021/07/16 04:10:15;;;;;;;8.95;3.97;;;;;;;22.08;60.67;99723.25;4976277;28;20081;-85
2021/07/16 04:12:48;;;;;;;7.93;3.53;;;;;;;21.98;60.93;99724.22;4993786;28;20501;-86
2021/07/16 04:15:15;;;;;;;7.80;3.53;;;;;;;21.72;62.02;99723.50;4994887;28;20054;-85
2021/07/16 04:17:41;;;;;;;3.65;2.88;;;;;;;21.87;61.17;99727.19;4995372;28;20058;-86
2021/07/16 04:20:09;;;;;;;4.88;3.40;;;;;;;21.82;61.15;99724.19;4977793;28;20047;-85
2021/07/16 04:22:37;;;;;;;7.53;3.03;;;;;;;21.72;60.96;99726.16;4995480;28;20137;-86
2021/07/16 04:25:04;;;;;;;5.90;3.58;;;;;;;21.82;61.30;99729.50;4994833;28;20046;-85
2021/07/16 04:27:31;;;;;;;7.35;3.33;;;;;;;21.68;61.30;99738.94;4994075;28;20105;-83
2021/07/16 04:29:58;;;;;;;5.15;3.20;;;;;;;21.45;61.79;99743.13;4995117;28;20493;-86
2021/07/16 04:32:25;;;;;;;9.13;4.28;;;;;;;21.61;61.49;99743.19;4995078;28;20042;-87
2021/07/16 04:34:52;;;;;;;6.65;4.13;;;;;;;21.57;60.99;99751.63;4994557;28;20401;-87
2021/07/16 04:37:19;;;;;;;4.50;3.42;;;;;;;21.70;60.90;99749.38;4992732;28;20113;-88
2021/07/16 04:39:46;;;;;;;6.95;3.63;;;;;;;21.53;61.90;99750.28;4972876;28;20493;-87
2021/07/16 04:42:13;;;;;;;7.80;4.35;;;;;;;21.56;62.13;99748.13;4987054;28;20038;-89
2021/07/16 04:44:39;;;;;;;10.77;5.03;;;;;;;21.62;62.32;99758.09;4983181;28;20126;-88
2021/07/16 04:47:06;;;;;;;9.70;4.05;;;;;;;21.55;62.56;99758.91;4986503;28;20038;-88
2021/07/16 04:49:37;;;;;;;17.83;8.68;;;;;;;21.42;63.76;99754.88;4977346;28;20057;-88
2021/07/16 04:52:05;;;;;;;7.63;5.72;;;;;;;21.46;64.13;99760.69;4979467;28;20049;-88
2021/07/16 04:54:32;;;;;;;6.95;6.32;;;;;;;21.37;66.21;99769.59;4981357;28;20410;-86
2021/07/16 04:56:59;;;;;;;12.77;6.47;;;;;;;21.26;67.92;99775.97;4986432;28;20043;-88
2021/07/16 04:59:26;;;;;;;10.48;6.65;;;;;;;21.10;70.37;99773.22;4978115;28;20043;-90
2021/07/16 05:01:52;;;;;;;8.68;7.13;;;;;;;20.69;72.95;99774.72;4976386;28;20047;-87
2021/07/16 05:04:20;;;;;;;10.45;8.55;;;;;;;20.66;72.62;99779.34;4975238;28;20716;-88
2021/07/16 05:06:47;;;;;;;12.00;10.85;;;;;;;20.58;73.97;99773.16;4981904;28;20043;-89
2021/07/16 05:09:16;;;;;;;17.00;12.00;;;;;;;20.55;74.70;99773.44;4980493;28;20057;-90
2021/07/16 05:11:44;;;;;;;17.08;14.73;;;;;;;20.35;75.58;99770.09;4983794;28;20034;-86
2021/07/16 05:14:11;;;;;;;14.05;12.55;;;;;;;20.38;75.54;99773.25;4985283;28;20039;-91
2021/07/16 05:16:42;;;;;;;15.77;12.32;;;;;;;20.50;74.64;99779.19;4978570;28;20054;-91
2021/07/16 05:19:09;;;;;;;15.38;13.85;;;;;;;20.36;76.41;99785.00;4962576;28;20038;-86
2021/07/16 05:21:36;;;;;;;22.80;20.60;;;;;;;20.43;76.13;99778.09;4987122;28;20060;-85
2021/07/16 05:24:03;;;;;;;24.90;22.50;;;;;;;20.36;77.08;99780.53;4987791;28;20118;-83
2021/07/16 05:26:30;;;;;;;24.67;22.10;;;;;;;20.56;76.20;99783.91;4986780;28;20042;-81
2021/07/16 05:28:57;;;;;;;29.63;26.38;;;;;;;20.51;76.71;99785.34;4982620;28;20074;-84
2021/07/16 05:31:24;;;;;;;26.75;24.02;;;;;;;20.53;77.02;99788.66;4984124;28;20042;-92
2021/07/16 05:33:51;;;;;;;23.23;20.83;;;;;;;20.51;76.46;99801.22;4985431;28;20069;-84
2021/07/16 05:36:18;;;;;;;21.92;19.45;;;;;;;20.64;75.95;99809.63;4985791;28;20530;-83
2021/07/16 05:38:45;;;;;;;11.88;9.45;;;;;;;20.33;75.17;99809.09;4985862;28;20046;-82
2021/07/16 05:41:13;;;;;;;9.02;6.55;;;;;;;20.14;75.67;99815.38;4990125;28;20081;-81
2021/07/16 05:43:40;;;;;;;15.13;6.18;;;;;;;19.76;77.47;99817.25;4971712;28;20373;-83
2021/07/16 05:46:06;;;;;;;8.85;5.40;;;;;;;19.79;78.13;99822.22;4962524;28;20085;-85
2021/07/16 05:48:33;;;;;;;6.78;3.78;;;;;;;19.88;77.00;99821.34;4987204;28;20176;-85
2021/07/16 05:51:01;;;;;;;5.60;4.55;;;;;;;19.76;78.74;99830.47;4982852;28;20042;-81
2021/07/16 05:53:29;;;;;;;5.88;5.25;;;;;;;19.59;79.84;99824.09;4985133;28;20497;-82
2021/07/16 05:55:56;;;;;;;7.00;6.30;;;;;;;19.55;79.93;99829.81;4985149;28;20137;-79
2021/07/16 05:58:23;;;;;;;4.20;3.83;;;;;;;19.54;78.64;99822.84;4982099;28;20101;-81
2021/07/16 06:00:50;;;;;;;2.88;2.65;;;;;;;19.45;77.50;99819.28;4990010;28;20163;-80
2021/07/16 06:03:17;;;;;;;4.13;2.50;;;;;;;19.56;76.15;99820.91;4985052;28;20137;-81
2021/07/16 06:05:44;;;;;;;2.45;2.13;;;;;;;19.54;75.27;99821.03;4986889;28;20038;-81
2021/07/16 06:08:15;;;;;;;6.57;3.25;;;;;;;19.59;75.49;99823.28;4982526;28;20061;-81
2021/07/16 06:10:45;;;;;;;3.75;2.53;;;;;;;19.43;76.57;99820.38;4986036;28;20390;-83
2021/07/16 06:13:11;;;;;;;9.95;2.67;;;;;;;19.45;77.69;99816.63;4987325;28;20096;-84
2021/07/16 06:15:38;;;;;;;4.88;2.70;;;;;;;19.24;78.51;99816.81;4983619;28;20461;-89
2021/07/16 06:18:06;;;;;;;7.57;3.17;;;;;;;19.20;79.58;99823.34;4980903;28;20039;-81
2021/07/16 06:20:34;;;;;;;5.30;2.90;;;;;;;19.13;80.61;99809.06;4974409;28;20543;-88
2021/07/16 06:23:01;;;;;;;3.95;2.65;;;;;;;19.28;81.65;99812.91;4984913;28;20132;-88
2021/07/16 06:25:28;;;;;;;6.20;3.22;;;;;;;19.17;83.29;99813.06;4984958;28;20074;-87
2021/07/16 06:27:55;;;;;;;6.72;3.75;;;;;;;19.13;83.98;99814.34;4985267;28;20513;-90
2021/07/16 06:30:22;;;;;;;5.82;3.55;;;;;;;19.21;83.09;99819.72;4978957;28;20047;-94
2021/07/16 06:32:49;;;;;;;11.98;4.38;;;;;;;19.42;82.95;99826.66;4977863;28;20141;-95
2021/07/16 06:35:17;;;;;;;5.78;3.85;;;;;;;19.58;81.70;99822.41;4959544;28;20042;-95
2021/07/16 06:37:44;;;;;;;7.43;4.57;;;;;;;19.53;80.94;99810.59;4981179;28;20046;-95
2021/07/16 06:40:12;;;;;;;7.70;4.43;;;;;;;19.67;80.26;99810.19;4975000;28;20074;-91
2021/07/16 06:42:39;;;;;;;4.25;3.85;;;;;;;19.35;82.09;99814.00;4978504;28;20053;-93
2021/07/16 06:45:06;;;;;;;9.68;4.18;;;;;;;19.42;81.65;99816.06;4982193;28;20378;-92
2021/07/16 06:47:33;;;;;;;8.15;5.00;;;;;;;19.26;85.12;99814.84;4987754;28;20121;-90
2021/07/16 06:50:00;;;;;;;7.85;5.15;;;;;;;19.59;83.93;99805.59;4963474;28;20042;-93
2021/07/16 06:52:33;;;;;;;5.93;4.35;;;;;;;19.38;83.35;99818.16;4996383;28;20085;-93
2021/07/16 06:55:01;;;;;;;5.20;3.83;;;;;;;19.57;83.49;99812.81;4982550;28;20138;-92
2021/07/16 06:57:28;;;;;;;6.00;5.28;;;;;;;19.71;82.34;99808.91;4981225;28;20569;-93
2021/07/16 06:59:55;;;;;;;4.72;4.22;;;;;;;19.54;84.83;99812.25;4997859;28;20394;-94
2021/07/16 07:02:22;;;;;;;9.90;5.63;;;;;;;19.53;84.91;99815.88;4991479;28;20043;-92
2021/07/16 07:04:49;;;;;;;5.35;4.85;;;;;;;19.69;84.54;99810.03;4980881;28;20046;-94
2021/07/16 07:07:16;;;;;;;8.05;3.92;;;;;;;19.57;84.27;99806.69;4992434;28;20043;-91
2021/07/16 07:09:43;;;;;;;4.25;3.70;;;;;;;19.61;82.78;99808.13;4976981;28;20049;-91
2021/07/16 07:12:10;;;;;;;4.93;3.10;;;;;;;19.56;83.51;99810.34;4978096;28;20046;-91
2021/07/16 07:14:37;;;;;;;4.50;4.00;;;;;;;19.75;81.49;99804.97;4976365;28;20062;-93
2021/07/16 07:17:04;;;;;;;6.07;4.00;;;;;;;19.90;81.29;99805.31;4977369;28;20047;-92
2021/07/16 07:19:31;;;;;;;5.80;4.35;;;;;;;20.08;78.47;99802.72;4968851;28;20039;-90
2021/07/16 07:21:58;;;;;;;3.63;3.33;;;;;;;20.27;77.15;99797.31;4988515;28;20526;-93
2021/07/16 07:24:25;;;;;;;3.38;3.10;;;;;;;20.17;77.50;99796.53;4998092;28;20049;-92
2021/07/16 07:26:55;;;;;;;3.58;3.25;;;;;;;20.04;79.06;99798.72;4997175;28;20543;-92
2021/07/16 07:29:23;;;;;;;5.25;4.28;;;;;;;20.00;80.21;99794.69;4994227;28;20046;-93
2021/07/16 07:31:50;;;;;;;4.70;3.47;;;;;;;19.96;80.00;99795.97;4996368;28;20149;-92
2021/07/16 07:34:17;;;;;;;6.28;5.22;;;;;;;20.13;81.11;99803.97;4996870;28;20437;-92
2021/07/16 07:36:47;;;;;;;5.97;3.95;;;;;;;20.42;79.31;99805.56;4977532;28;20129;-93
2021/07/16 07:39:14;;;;;;;4.35;3.95;;;;;;;20.53;79.83;99805.38;4995367;28;20409;-93
2021/07/16 07:41:45;;;;;;;6.93;3.10;;;;;;;20.48;77.60;99806.81;4978742;28;20053;-90
2021/07/16 07:44:14;;;;;;;3.05;2.83;;;;;;;20.60;75.41;99813.53;4977675;28;20379;-89
2021/07/16 07:46:42;;;;;;;2.97;2.47;;;;;;;20.73;74.48;99814.00;4959327;28;20073;-89
2021/07/16 07:49:11;;;;;;;3.88;3.28;;;;;;;20.72;76.68;99815.00;4984344;28;20057;-89
2021/07/16 07:51:39;;;;;;;4.38;3.33;;;;;;;20.77;79.09;99812.69;4978496;28;20072;-92
2021/07/16 07:54:09;;;;;;;8.45;3.25;;;;;;;20.76;75.99;99818.16;4996138;28;20441;-92
2021/07/16 07:56:38;;;;;;;5.97;2.70;;;;;;;20.89;75.42;99822.09;4978945;28;20440;-92
2021/07/16 07:59:06;;;;;;;3.63;2.47;;;;;;;20.82;74.63;99820.19;4978896;28;20049;-93
2021/07/16 08:01:34;;;;;;;4.03;2.70;;;;;;;20.75;77.64;99813.84;4996402;28;20430;-94
2021/07/16 08:04:02;;;;;;;4.55;3.55;;;;;;;20.92;76.12;99818.28;4990163;28;20113;-96
2021/07/16 08:06:29;;;;;;;6.20;3.13;;;;;;;21.18;76.74;99815.66;4994693;28;20056;-95
2021/07/16 08:08:57;;;;;;;4.40;3.88;;;;;;;21.03;74.63;99811.91;4996510;28;20051;-93
2021/07/16 08:11:24;;;;;;;6.47;4.22;;;;;;;21.10;75.52;99805.03;4990105;28;20098;-93
2021/07/16 08:13:51;;;;;;;6.18;4.55;;;;;;;21.20;74.25;99805.75;4978702;28;20039;-91
2021/07/16 08:16:18;;;;;;;7.22;5.03;;;;;;;21.24;74.32;99809.75;4989490;28;20133;-89
2021/07/16 08:18:45;;;;;;;8.23;5.55;;;;;;;21.25;74.78;99807.91;4991185;28;20034;-89
2021/07/16 08:21:12;;;;;;;6.10;4.90;;;;;;;21.34;74.60;99809.66;4987890;28;20111;-86
2021/07/16 08:23:39;;;;;;;5.72;4.70;;;;;;;21.42;74.26;99817.69;4993311;28;20085;-83
2021/07/16 08:26:06;;;;;;;5.50;4.97;;;;;;;21.50;75.28;99809.75;4985532;28;20038;-89
2021/07/16 08:28:33;;;;;;;4.75;4.22;;;;;;;21.47;74.95;99814.56;4992427;28;20113;-88
2021/07/16 08:31:01;;;;;;;9.20;5.15;;;;;;;21.47;75.30;99814.56;4990449;28;20043;-91
2021/07/16 08:33:29;;;;;;;9.20;5.55;;;;;;;21.35;76.53;99812.16;4973482;28;20054;-90
2021/07/16 08:35:56;;;;;;;7.80;4.35;;;;;;;21.28;75.06;99815.56;4975883;28;20058;-88
2021/07/16 08:38:24;;;;;;;7.43;4.80;;;;;;;21.29;74.88;99806.63;4992760;28;20129;-88
2021/07/16 08:40:51;;;;;;;7.20;5.28;;;;;;;21.57;74.55;99821.44;4974740;28;20046;-81
2021/07/16 08:43:20;;;;;;;4.97;4.30;;;;;;;21.51;73.13;99810.59;4991321;28;20055;-80
2021/07/16 08:45:47;;;;;;;11.23;4.65;;;;;;;21.78;73.10;99817.53;4988456;28;20482;-84
2021/07/16 08:48:14;;;;;;;5.70;3.95;;;;;;;21.87;72.75;99817.41;4988384;28;20501;-83
2021/07/16 08:50:41;;;;;;;9.02;4.05;;;;;;;21.86;72.37;99821.06;4988177;28;20047;-83
2021/07/16 08:53:11;;;;;;;4.50;3.63;;;;;;;21.87;72.50;99820.06;4991208;28;20562;-83
2021/07/16 08:55:41;;;;;;;7.82;3.88;;;;;;;22.16;72.66;99825.03;4989161;28;20061;-84
2021/07/16 08:58:10;;;;;;;4.68;3.08;;;;;;;22.25;71.73;99822.38;4972629;28;20043;-83
2021/07/16 09:00:37;;;;;;;5.63;3.20;;;;;;;22.33;70.71;99819.75;4985556;28;20129;-82
2021/07/16 09:03:05;;;;;;;4.95;3.00;;;;;;;22.40;71.76;99824.22;4990104;28;20049;-82
2021/07/16 09:05:40;;;;;;;4.22;3.20;;;;;;;22.03;69.23;99821.94;4984551;28;20067;-83
2021/07/16 09:08:16;;;;;;;3.97;2.92;;;;;;;22.33;69.67;99825.91;4973321;28;20042;-82
2021/07/16 09:10:45;;;;;;;6.05;3.42;;;;;;;22.48;69.76;99829.56;4989649;28;20070;-85
2021/07/16 09:13:13;;;;;;;4.95;3.55;;;;;;;22.36;68.76;99824.72;4991321;28;20105;-84
2021/07/16 09:15:47;;;;;;;3.03;2.70;;;;;;;22.58;67.21;99836.53;4974020;28;20124;-86
2021/07/16 09:18:21;;;;;;;2.65;2.45;;;;;;;22.68;65.74;99831.91;4991871;28;20046;-86
2021/07/16 09:21:09;;;;;;;2.67;2.25;;;;;;;22.66;65.59;99831.25;4989900;28;20097;-83
2021/07/16 09:23:41;;;;;;;4.63;2.45;;;;;;;22.93;64.28;99827.47;4990288;28;20129;-83
2021/07/16 09:26:27;;;;;;;4.72;2.75;;;;;;;22.93;63.61;99830.97;4990890;28;20548;-84
2021/07/16 09:28:56;;;;;;;4.35;2.72;;;;;;;23.02;65.13;99836.28;4987313;28;20121;-84
2021/07/16 09:31:28;;;;;;;2.63;2.42;;;;;;;22.98;64.88;99825.16;4992464;28;20101;-83
2021/07/16 09:34:03;;;;;;;2.88;2.45;;;;;;;22.99;63.15;99834.78;4990027;28;20081;-84
2021/07/16 09:36:32;;;;;;;4.32;2.50;;;;;;;22.96;62.99;99830.66;4989603;28;20046;-83
2021/07/16 09:39:05;;;;;;;3.80;3.13;;;;;;;23.35;61.84;99827.28;4988640;28;20297;-82
2021/07/16 09:41:33;;;;;;;4.13;1.98;;;;;;;23.26;60.95;99828.28;4984756;28;20047;-78
2021/07/16 09:44:03;;;;;;;2.55;2.05;;;;;;;23.06;61.61;99829.63;4990690;28;20046;-90
2021/07/16 09:46:30;;;;;;;2.55;2.30;;;;;;;23.31;61.88;99820.63;4990617;28;20056;-84
2021/07/16 09:49:11;;;;;;;3.08;2.58;;;;;;;23.07;61.86;99826.00;4990778;28;20050;-83
2021/07/16 09:51:43;;;;;;;3.28;2.67;;;;;;;23.27;62.69;99822.78;4990673;28;20129;-84
2021/07/16 09:54:14;;;;;;;4.80;2.60;;;;;;;23.49;62.56;99813.28;4989316;28;20134;-84
2021/07/16 09:56:41;;;;;;;2.40;2.20;;;;;;;23.65;60.46;99816.91;4986392;28;20042;-83
2021/07/16 09:59:14;;;;;;;2.28;1.88;;;;;;;23.49;59.59;99809.78;4989434;28;20154;-80
2021/07/16 10:01:43;;;;;;;3.97;2.00;;;;;;;23.61;58.67;99808.44;4986929;28;20576;-81
2021/07/16 10:04:23;;;;;;;4.35;1.88;;;;;;;23.70;56.07;99809.25;4989332;28;20575;-83
2021/07/16 10:06:53;;;;;;;2.25;1.83;;;;;;;24.31;55.11;99807.63;4988068;28;20125;-82
2021/07/16 10:09:22;;;;;;;2.03;1.85;;;;;;;24.31;55.13;99804.97;4988621;28;20042;-81
2021/07/16 10:11:53;;;;;;;1.95;1.70;;;;;;;24.16;53.59;99806.72;4986444;28;20057;-83
2021/07/16 10:14:20;;;;;;;7.07;2.00;;;;;;;24.17;52.27;99819.00;4960492;28;20065;-86
2021/07/16 10:16:49;;;;;;;2.40;1.70;;;;;;;23.99;53.28;99812.13;4984574;28;20065;-83
2021/07/16 10:19:17;;;;;;;1.60;1.50;;;;;;;24.31;52.74;99810.28;4988876;28;20097;-81
2021/07/16 10:21:48;;;;;;;3.97;1.98;;;;;;;24.05;52.09;99814.09;4989341;28;20046;-81
2021/07/16 10:24:22;;;;;;;7.07;2.42;;;;;;;24.21;51.71;99813.16;4987522;28;20043;-83
2021/07/16 10:26:56;;;;;;;1.70;1.60;;;;;;;24.22;51.94;99811.34;4988139;28;20512;-80
2021/07/16 10:29:34;;;;;;;3.47;2.03;;;;;;;24.31;52.72;99816.44;4986656;28;20766;-80
2021/07/16 10:32:01;;;;;;;2.13;1.95;;;;;;;24.02;52.66;99806.47;4987386;28;20041;-80
2021/07/16 10:34:28;;;;;;;5.70;2.28;;;;;;;24.21;53.09;99809.69;4987700;28;20038;-82
2021/07/16 10:37:02;;;;;;;3.17;2.00;;;;;;;24.17;52.91;99814.50;4986629;28;20039;-85
2021/07/16 10:40:02;;;;;;;2.65;1.88;;;;;;;24.12;53.30;99816.03;4986647;28;20054;-90
2021/07/16 10:42:29;;;;;;;2.50;2.30;;;;;;;24.17;52.95;99819.00;4943076;28;20050;-90
2021/07/16 10:45:03;;;;;;;2.17;1.98;;;;;;;24.41;53.83;99820.75;4985804;28;20111;-85
2021/07/16 10:47:52;;;;;;;4.40;2.05;;;;;;;24.38;53.55;99821.09;4984832;28;20081;-81
2021/07/16 10:50:28;;;;;;;3.65;1.80;;;;;;;24.05;54.08;99827.41;4988362;28;20222;-81
2021/07/16 10:52:55;;;;;;;2.53;1.65;;;;;;;24.23;53.83;99823.63;4987765;28;20101;-81
2021/07/16 10:55:28;;;;;;;2.88;1.85;;;;;;;24.02;53.70;99824.25;4985187;28;20043;-84
2021/07/16 10:57:55;;;;;;;3.38;2.15;;;;;;;24.04;54.29;99824.91;4985494;28;20387;-81
2021/07/16 11:00:37;;;;;;;2.85;2.38;;;;;;;24.10;55.29;99826.88;4977137;28;20077;-88
2021/07/16 11:03:12;;;;;;;5.63;3.33;;;;;;;24.07;56.95;99829.06;4988697;28;20034;-80
2021/07/16 11:05:42;;;;;;;3.58;3.20;;;;;;;23.92;57.65;99824.47;4984402;28;20063;-82
2021/07/16 11:08:28;;;;;;;4.13;2.92;;;;;;;23.69;58.56;99826.22;4982937;28;20077;-82
2021/07/16 11:11:04;;;;;;;11.85;3.28;;;;;;;23.79;58.11;99827.66;4986438;28;20070;-78
2021/07/16 11:13:47;;;;;;;4.05;3.40;;;;;;;23.81;58.65;99826.66;4985724;28;20129;-81
2021/07/16 11:16:34;;;;;;;4.63;2.88;;;;;;;23.79;58.05;99814.38;4987162;28;20221;-81
2021/07/16 11:19:12;;;;;;;3.50;2.95;;;;;;;23.92;56.69;99823.66;4982563;28;20042;-83
2021/07/16 11:21:40;;;;;;;7.10;3.53;;;;;;;23.88;58.96;99825.81;4986481;28;20042;-81
2021/07/16 11:24:19;;;;;;;4.03;3.22;;;;;;;23.50;63.10;99822.91;4985170;28;20046;-83
2021/07/16 11:27:09;;;;;;;7.07;3.15;;;;;;;23.34;63.52;99825.63;4985666;28;20121;-82
2021/07/16 11:29:41;;;;;;;4.85;2.92;;;;;;;23.50;62.44;99824.75;4985217;28;20173;-83
2021/07/16 11:32:27;;;;;;;4.82;2.75;;;;;;;23.18;64.22;99812.34;4989098;28;20049;-83
2021/07/16 11:35:06;;;;;;;7.28;2.95;;;;;;;23.26;64.25;99813.16;4988727;28;20129;-83
2021/07/16 11:37:35;;;;;;;4.35;2.72;;;;;;;22.84;66.91;99820.47;4989135;28;20129;-89
2021/07/16 11:40:20;;;;;;;4.20;2.67;;;;;;;23.11;66.25;99822.81;4988800;28;20045;-86